sensor_id;sensor_type;location;lat;lon;timestamp;P1;durP1;ratioP1;P2;durP2;ratioP2
31978;SDS011;18502;43.574;1.276;2022-11-14T00:02:08;10.15;;;4.80;;
31978;SDS011;18502;43.574;1.276;2022-11-14T00:04:34;8.57;;;5.10;;
31978;SDS011;18502;43.574;1.276;2022-11-14T00:07:00;8.55;;;5.32;;
31978;SDS011;18502;43.574;1.276;2022-11-14T00:09:26;5.25;;;4.13;;
31978;SDS011;18502;43.574;1.276;2022-11-14T00:11:52;7.30;;;4.40;;
31978;SDS011;18502;43.574;1.276;2022-11-14T00:14:18;8.65;;;5.03;;
31978;SDS011;18502;43.574;1.276;2022-11-14T00:16:44;5.88;;;4.22;;
31978;SDS011;18502;43.574;1.276;2022-11-14T00:19:10;10.07;;;5.03;;
31978;SDS011;18502;43.574;1.276;2022-11-14T00:21:36;7.93;;;4.78;;
31978;SDS011;18502;43.574;1.276;2022-11-14T00:24:02;6.35;;;5.10;;
31978;SDS011;18502;43.574;1.276;2022-11-14T00:26:28;7.50;;;4.75;;
31978;SDS011;18502;43.574;1.276;2022-11-14T00:28:54;8.93;;;5.22;;
31978;SDS011;18502;43.574;1.276;2022-11-14T00:31:19;10.48;;;5.30;;
31978;SDS011;18502;43.574;1.276;2022-11-14T00:33:45;12.07;;;6.40;;
31978;SDS011;18502;43.574;1.276;2022-11-14T00:36:11;7.82;;;5.18;;
31978;SDS011;18502;43.574;1.276;2022-11-14T00:38:37;8.32;;;5.93;;
31978;SDS011;18502;43.574;1.276;2022-11-14T00:41:02;7.22;;;5.53;;
31978;SDS011;18502;43.574;1.276;2022-11-14T00:43:28;10.80;;;5.55;;
31978;SDS011;18502;43.574;1.276;2022-11-14T00:45:54;10.70;;;5.97;;
31978;SDS011;18502;43.574;1.276;2022-11-14T00:48:19;7.43;;;4.90;;
31978;SDS011;18502;43.574;1.276;2022-11-14T00:50:45;5.63;;;4.97;;
31978;SDS011;18502;43.574;1.276;2022-11-14T00:53:11;11.75;;;5.10;;
31978;SDS011;18502;43.574;1.276;2022-11-14T00:55:37;10.68;;;5.35;;
31978;SDS011;18502;43.574;1.276;2022-11-14T00:58:02;11.10;;;5.20;;
31978;SDS011;18502;43.574;1.276;2022-11-14T01:00:28;6.97;;;4.68;;
31978;SDS011;18502;43.574;1.276;2022-11-14T01:02:54;8.50;;;5.30;;
31978;SDS011;18502;43.574;1.276;2022-11-14T01:05:21;7.38;;;4.78;;
31978;SDS011;18502;43.574;1.276;2022-11-14T01:07:48;7.88;;;4.50;;
31978;SDS011;18502;43.574;1.276;2022-11-14T01:10:14;8.40;;;5.10;;
31978;SDS011;18502;43.574;1.276;2022-11-14T01:12:40;9.65;;;5.25;;
31978;SDS011;18502;43.574;1.276;2022-11-14T01:15:06;7.85;;;4.88;;
31978;SDS011;18502;43.574;1.276;2022-11-14T01:17:32;10.73;;;6.07;;
31978;SDS011;18502;43.574;1.276;2022-11-14T01:19:58;10.55;;;5.25;;
31978;SDS011;18502;43.574;1.276;2022-11-14T01:22:23;10.10;;;5.07;;
31978;SDS011;18502;43.574;1.276;2022-11-14T01:24:49;9.80;;;6.05;;
31978;SDS011;18502;43.574;1.276;2022-11-14T01:27:15;8.88;;;5.22;;
31978;SDS011;18502;43.574;1.276;2022-11-14T01:29:40;11.63;;;4.80;;
31978;SDS011;18502;43.574;1.276;2022-11-14T01:32:06;15.52;;;5.47;;
31978;SDS011;18502;43.574;1.276;2022-11-14T01:34:32;7.72;;;4.72;;
31978;SDS011;18502;43.574;1.276;2022-11-14T01:36:57;11.35;;;4.75;;
31978;SDS011;18502;43.574;1.276;2022-11-14T01:39:25;9.95;;;4.53;;
31978;SDS011;18502;43.574;1.276;2022-11-14T01:41:51;11.85;;;5.55;;
31978;SDS011;18502;43.574;1.276;2022-11-14T01:44:36;9.52;;;4.55;;
31978;SDS011;18502;43.574;1.276;2022-11-14T01:47:10;11.48;;;4.80;;
31978;SDS011;18502;43.574;1.276;2022-11-14T01:52:12;9.93;;;4.28;;
31978;SDS011;18502;43.574;1.276;2022-11-14T01:54:45;9.05;;;5.22;;
31978;SDS011;18502;43.574;1.276;2022-11-14T01:57:13;11.00;;;5.15;;
31978;SDS011;18502;43.574;1.276;2022-11-14T01:59:43;10.98;;;5.22;;
31978;SDS011;18502;43.574;1.276;2022-11-14T02:02:15;14.75;;;5.57;;
31978;SDS011;18502;43.574;1.276;2022-11-14T02:04:45;12.02;;;5.07;;
31978;SDS011;18502;43.574;1.276;2022-11-14T02:07:14;12.32;;;5.03;;
31978;SDS011;18502;43.574;1.276;2022-11-14T02:09:42;14.40;;;4.57;;
31978;SDS011;18502;43.574;1.276;2022-11-14T02:12:11;10.10;;;3.93;;
31978;SDS011;18502;43.574;1.276;2022-11-14T02:14:38;10.32;;;4.68;;
31978;SDS011;18502;43.574;1.276;2022-11-14T02:17:06;17.02;;;5.60;;
31978;SDS011;18502;43.574;1.276;2022-11-14T02:22:36;11.15;;;4.55;;
31978;SDS011;18502;43.574;1.276;2022-11-14T02:25:06;9.30;;;4.78;;
31978;SDS011;18502;43.574;1.276;2022-11-14T02:27:33;19.70;;;5.68;;
31978;SDS011;18502;43.574;1.276;2022-11-14T02:30:08;13.30;;;5.28;;
31978;SDS011;18502;43.574;1.276;2022-11-14T02:32:37;12.57;;;5.40;;
31978;SDS011;18502;43.574;1.276;2022-11-14T02:35:03;10.85;;;5.32;;
31978;SDS011;18502;43.574;1.276;2022-11-14T02:37:28;7.38;;;4.60;;
31978;SDS011;18502;43.574;1.276;2022-11-14T02:39:54;17.00;;;5.50;;
31978;SDS011;18502;43.574;1.276;2022-11-14T02:42:20;12.18;;;5.07;;
31978;SDS011;18502;43.574;1.276;2022-11-14T02:44:45;9.15;;;4.63;;
31978;SDS011;18502;43.574;1.276;2022-11-14T02:47:11;12.30;;;5.32;;
31978;SDS011;18502;43.574;1.276;2022-11-14T02:49:36;13.68;;;5.43;;
31978;SDS011;18502;43.574;1.276;2022-11-14T02:52:02;9.35;;;5.05;;
31978;SDS011;18502;43.574;1.276;2022-11-14T02:54:28;12.57;;;5.03;;
31978;SDS011;18502;43.574;1.276;2022-11-14T02:56:54;10.20;;;4.45;;
31978;SDS011;18502;43.574;1.276;2022-11-14T02:59:19;18.55;;;7.35;;
31978;SDS011;18502;43.574;1.276;2022-11-14T03:01:45;8.82;;;4.20;;
31978;SDS011;18502;43.574;1.276;2022-11-14T03:04:11;10.05;;;4.22;;
31978;SDS011;18502;43.574;1.276;2022-11-14T03:06:36;13.27;;;5.32;;
31978;SDS011;18502;43.574;1.276;2022-11-14T03:09:02;10.07;;;4.57;;
31978;SDS011;18502;43.574;1.276;2022-11-14T03:11:27;8.93;;;4.28;;
31978;SDS011;18502;43.574;1.276;2022-11-14T03:13:53;14.15;;;5.82;;
31978;SDS011;18502;43.574;1.276;2022-11-14T03:16:19;10.82;;;4.93;;
31978;SDS011;18502;43.574;1.276;2022-11-14T03:18:44;16.70;;;5.43;;
31978;SDS011;18502;43.574;1.276;2022-11-14T03:21:11;15.52;;;5.00;;
31978;SDS011;18502;43.574;1.276;2022-11-14T03:23:39;16.35;;;4.97;;
31978;SDS011;18502;43.574;1.276;2022-11-14T03:26:06;10.85;;;4.88;;
31978;SDS011;18502;43.574;1.276;2022-11-14T03:28:33;9.35;;;4.35;;
31978;SDS011;18502;43.574;1.276;2022-11-14T03:30:59;12.65;;;5.15;;
31978;SDS011;18502;43.574;1.276;2022-11-14T03:33:24;15.95;;;5.55;;
31978;SDS011;18502;43.574;1.276;2022-11-14T03:35:50;11.38;;;4.63;;
31978;SDS011;18502;43.574;1.276;2022-11-14T03:38:17;9.20;;;4.63;;
31978;SDS011;18502;43.574;1.276;2022-11-14T06:32:20;20.55;;;8.23;;
31978;SDS011;18502;43.574;1.276;2022-11-14T06:34:45;24.15;;;9.07;;
31978;SDS011;18502;43.574;1.276;2022-11-14T06:37:11;23.13;;;7.57;;
31978;SDS011;18502;43.574;1.276;2022-11-14T06:39:36;23.55;;;8.60;;
31978;SDS011;18502;43.574;1.276;2022-11-14T06:42:02;22.27;;;9.35;;
31978;SDS011;18502;43.574;1.276;2022-11-14T06:44:28;26.40;;;8.30;;
31978;SDS011;18502;43.574;1.276;2022-11-14T06:46:53;14.35;;;8.32;;
31978;SDS011;18502;43.574;1.276;2022-11-14T06:49:20;24.10;;;8.93;;
31978;SDS011;18502;43.574;1.276;2022-11-14T06:51:46;15.60;;;8.82;;
31978;SDS011;18502;43.574;1.276;2022-11-14T06:54:12;20.55;;;8.88;;
31978;SDS011;18502;43.574;1.276;2022-11-14T06:56:38;18.80;;;8.85;;
31978;SDS011;18502;43.574;1.276;2022-11-14T06:59:03;20.67;;;9.68;;
31978;SDS011;18502;43.574;1.276;2022-11-14T07:01:29;25.77;;;13.48;;
31978;SDS011;18502;43.574;1.276;2022-11-14T07:03:54;21.40;;;11.48;;
31978;SDS011;18502;43.574;1.276;2022-11-14T07:06:25;27.10;;;14.13;;
31978;SDS011;18502;43.574;1.276;2022-11-14T07:08:52;38.35;;;15.90;;
31978;SDS011;18502;43.574;1.276;2022-11-14T07:11:20;23.33;;;10.13;;
31978;SDS011;18502;43.574;1.276;2022-11-14T07:14:05;21.60;;;12.23;;
31978;SDS011;18502;43.574;1.276;2022-11-14T07:16:32;25.60;;;14.02;;
31978;SDS011;18502;43.574;1.276;2022-11-14T07:18:59;28.30;;;12.02;;
31978;SDS011;18502;43.574;1.276;2022-11-14T07:21:28;19.00;;;12.40;;
31978;SDS011;18502;43.574;1.276;2022-11-14T07:23:55;22.10;;;9.82;;
31978;SDS011;18502;43.574;1.276;2022-11-14T07:26:21;24.25;;;9.43;;
31978;SDS011;18502;43.574;1.276;2022-11-14T07:28:47;26.10;;;9.98;;
31978;SDS011;18502;43.574;1.276;2022-11-14T07:31:14;23.38;;;10.43;;
31978;SDS011;18502;43.574;1.276;2022-11-14T07:33:42;21.20;;;9.02;;
31978;SDS011;18502;43.574;1.276;2022-11-14T07:36:09;22.02;;;10.10;;
31978;SDS011;18502;43.574;1.276;2022-11-14T07:38:37;20.42;;;9.90;;
31978;SDS011;18502;43.574;1.276;2022-11-14T07:41:05;26.25;;;11.20;;
31978;SDS011;18502;43.574;1.276;2022-11-14T07:43:33;35.25;;;17.48;;
31978;SDS011;18502;43.574;1.276;2022-11-14T07:45:59;30.50;;;15.20;;
31978;SDS011;18502;43.574;1.276;2022-11-14T07:48:26;20.17;;;11.20;;
31978;SDS011;18502;43.574;1.276;2022-11-14T07:50:52;24.88;;;10.00;;
31978;SDS011;18502;43.574;1.276;2022-11-14T07:53:21;21.17;;;10.65;;
31978;SDS011;18502;43.574;1.276;2022-11-14T07:55:48;21.20;;;10.13;;
31978;SDS011;18502;43.574;1.276;2022-11-14T07:58:13;19.85;;;10.90;;
31978;SDS011;18502;43.574;1.276;2022-11-14T08:00:39;18.70;;;7.47;;
31978;SDS011;18502;43.574;1.276;2022-11-14T08:03:05;17.70;;;7.88;;
31978;SDS011;18502;43.574;1.276;2022-11-14T08:05:32;15.25;;;6.82;;
31978;SDS011;18502;43.574;1.276;2022-11-14T08:07:58;13.90;;;6.97;;
31978;SDS011;18502;43.574;1.276;2022-11-14T08:10:23;12.65;;;7.28;;
31978;SDS011;18502;43.574;1.276;2022-11-14T08:12:56;11.75;;;7.60;;
31978;SDS011;18502;43.574;1.276;2022-11-14T08:15:23;16.20;;;7.47;;
31978;SDS011;18502;43.574;1.276;2022-11-14T08:17:48;13.20;;;6.88;;
31978;SDS011;18502;43.574;1.276;2022-11-14T08:20:14;17.52;;;7.75;;
31978;SDS011;18502;43.574;1.276;2022-11-14T08:22:40;13.00;;;6.93;;
31978;SDS011;18502;43.574;1.276;2022-11-14T08:25:06;11.48;;;7.00;;
31978;SDS011;18502;43.574;1.276;2022-11-14T08:27:32;14.73;;;7.47;;
31978;SDS011;18502;43.574;1.276;2022-11-14T08:29:57;18.90;;;8.23;;
31978;SDS011;18502;43.574;1.276;2022-11-14T08:32:23;12.85;;;6.22;;
31978;SDS011;18502;43.574;1.276;2022-11-14T08:34:48;13.05;;;7.53;;
31978;SDS011;18502;43.574;1.276;2022-11-14T08:37:14;12.15;;;6.57;;
31978;SDS011;18502;43.574;1.276;2022-11-14T08:39:40;16.58;;;6.85;;
31978;SDS011;18502;43.574;1.276;2022-11-14T08:42:06;12.07;;;5.97;;
31978;SDS011;18502;43.574;1.276;2022-11-14T08:44:31;15.05;;;6.57;;
31978;SDS011;18502;43.574;1.276;2022-11-14T08:46:57;14.65;;;7.97;;
31978;SDS011;18502;43.574;1.276;2022-11-14T08:49:24;12.48;;;7.07;;
31978;SDS011;18502;43.574;1.276;2022-11-14T08:51:51;12.25;;;7.10;;
31978;SDS011;18502;43.574;1.276;2022-11-14T08:54:17;14.15;;;7.35;;
31978;SDS011;18502;43.574;1.276;2022-11-14T08:56:43;15.15;;;7.93;;
31978;SDS011;18502;43.574;1.276;2022-11-14T08:59:09;13.38;;;6.95;;
31978;SDS011;18502;43.574;1.276;2022-11-14T09:01:34;14.57;;;7.20;;
31978;SDS011;18502;43.574;1.276;2022-11-14T09:04:00;10.63;;;6.55;;
31978;SDS011;18502;43.574;1.276;2022-11-14T09:06:26;12.82;;;6.65;;
31978;SDS011;18502;43.574;1.276;2022-11-14T09:08:52;14.30;;;6.85;;
31978;SDS011;18502;43.574;1.276;2022-11-14T09:11:18;18.30;;;7.68;;
31978;SDS011;18502;43.574;1.276;2022-11-14T09:13:44;16.58;;;7.70;;
31978;SDS011;18502;43.574;1.276;2022-11-14T09:16:09;14.98;;;8.15;;
31978;SDS011;18502;43.574;1.276;2022-11-14T09:18:35;11.68;;;7.18;;
31978;SDS011;18502;43.574;1.276;2022-11-14T09:21:01;16.20;;;6.85;;
31978;SDS011;18502;43.574;1.276;2022-11-14T09:23:28;13.82;;;7.78;;
31978;SDS011;18502;43.574;1.276;2022-11-14T09:25:54;13.93;;;8.20;;
31978;SDS011;18502;43.574;1.276;2022-11-14T09:28:21;15.10;;;8.35;;
31978;SDS011;18502;43.574;1.276;2022-11-14T09:30:50;13.20;;;6.90;;
31978;SDS011;18502;43.574;1.276;2022-11-14T09:33:15;10.80;;;7.22;;
31978;SDS011;18502;43.574;1.276;2022-11-14T09:35:41;20.80;;;7.43;;
31978;SDS011;18502;43.574;1.276;2022-11-14T09:38:08;14.98;;;8.10;;
31978;SDS011;18502;43.574;1.276;2022-11-14T09:40:52;12.18;;;7.20;;
31978;SDS011;18502;43.574;1.276;2022-11-14T09:45:54;9.77;;;6.47;;
31978;SDS011;18502;43.574;1.276;2022-11-14T09:48:21;13.40;;;7.68;;
31978;SDS011;18502;43.574;1.276;2022-11-14T09:51:13;10.68;;;6.93;;
31978;SDS011;18502;43.574;1.276;2022-11-14T09:56:24;10.10;;;6.95;;
31978;SDS011;18502;43.574;1.276;2022-11-14T09:58:51;12.10;;;7.40;;
31978;SDS011;18502;43.574;1.276;2022-11-14T10:04:25;13.30;;;7.40;;
31978;SDS011;18502;43.574;1.276;2022-11-14T10:31:34;15.25;;;6.85;;
31978;SDS011;18502;43.574;1.276;2022-11-14T10:34:28;9.02;;;6.45;;
31978;SDS011;18502;43.574;1.276;2022-11-14T10:37:02;13.27;;;7.05;;
31978;SDS011;18502;43.574;1.276;2022-11-14T10:42:21;12.38;;;7.10;;
31978;SDS011;18502;43.574;1.276;2022-11-14T10:47:35;15.23;;;6.88;;
31978;SDS011;18502;43.574;1.276;2022-11-14T10:50:39;12.20;;;7.13;;
31978;SDS011;18502;43.574;1.276;2022-11-14T10:55:53;12.70;;;7.70;;
31978;SDS011;18502;43.574;1.276;2022-11-14T10:58:20;12.48;;;7.68;;
31978;SDS011;18502;43.574;1.276;2022-11-14T11:00:46;11.50;;;7.20;;
31978;SDS011;18502;43.574;1.276;2022-11-14T11:03:11;14.30;;;8.10;;
31978;SDS011;18502;43.574;1.276;2022-11-14T11:05:45;12.05;;;8.48;;
31978;SDS011;18502;43.574;1.276;2022-11-14T11:08:19;14.10;;;8.55;;
31978;SDS011;18502;43.574;1.276;2022-11-14T11:11:04;11.82;;;8.48;;
31978;SDS011;18502;43.574;1.276;2022-11-14T11:13:54;10.57;;;7.82;;
31978;SDS011;18502;43.574;1.276;2022-11-14T11:16:22;14.48;;;9.18;;
31978;SDS011;18502;43.574;1.276;2022-11-14T11:18:49;14.40;;;7.75;;
31978;SDS011;18502;43.574;1.276;2022-11-14T11:21:16;12.05;;;6.25;;
31978;SDS011;18502;43.574;1.276;2022-11-14T11:23:56;9.93;;;6.90;;
31978;SDS011;18502;43.574;1.276;2022-11-14T11:26:26;13.88;;;7.32;;
31978;SDS011;18502;43.574;1.276;2022-11-14T11:31:54;11.13;;;7.07;;
31978;SDS011;18502;43.574;1.276;2022-11-14T11:34:26;13.13;;;7.05;;
31978;SDS011;18502;43.574;1.276;2022-11-14T11:36:57;10.95;;;6.60;;
31978;SDS011;18502;43.574;1.276;2022-11-14T11:39:36;9.75;;;6.28;;
31978;SDS011;18502;43.574;1.276;2022-11-14T11:42:07;8.60;;;6.28;;
31978;SDS011;18502;43.574;1.276;2022-11-14T11:44:43;11.57;;;6.68;;
31978;SDS011;18502;43.574;1.276;2022-11-14T11:47:12;12.43;;;7.22;;
31978;SDS011;18502;43.574;1.276;2022-11-14T11:49:50;15.52;;;7.22;;
31978;SDS011;18502;43.574;1.276;2022-11-14T11:55:03;12.65;;;7.45;;
31978;SDS011;18502;43.574;1.276;2022-11-14T11:57:33;10.00;;;6.45;;
31978;SDS011;18502;43.574;1.276;2022-11-14T12:00:21;8.57;;;5.82;;
31978;SDS011;18502;43.574;1.276;2022-11-14T12:02:48;12.68;;;6.53;;
31978;SDS011;18502;43.574;1.276;2022-11-14T12:05:17;9.13;;;6.85;;
31978;SDS011;18502;43.574;1.276;2022-11-14T12:11:17;11.30;;;7.82;;
31978;SDS011;18502;43.574;1.276;2022-11-14T12:13:52;12.50;;;6.97;;
31978;SDS011;18502;43.574;1.276;2022-11-14T12:29:27;9.73;;;6.55;;
31978;SDS011;18502;43.574;1.276;2022-11-14T12:32:17;12.30;;;7.22;;
31978;SDS011;18502;43.574;1.276;2022-11-14T12:34:50;15.77;;;7.45;;
31978;SDS011;18502;43.574;1.276;2022-11-14T12:37:19;14.32;;;6.82;;
31978;SDS011;18502;43.574;1.276;2022-11-14T12:40:01;10.95;;;6.90;;
31978;SDS011;18502;43.574;1.276;2022-11-14T12:42:27;10.90;;;6.68;;
31978;SDS011;18502;43.574;1.276;2022-11-14T12:44:53;9.07;;;6.72;;
31978;SDS011;18502;43.574;1.276;2022-11-14T12:47:19;12.27;;;7.20;;
31978;SDS011;18502;43.574;1.276;2022-11-14T12:55:18;11.32;;;7.95;;
31978;SDS011;18502;43.574;1.276;2022-11-14T13:00:33;11.38;;;8.48;;
31978;SDS011;18502;43.574;1.276;2022-11-14T13:05:58;14.82;;;9.95;;
31978;SDS011;18502;43.574;1.276;2022-11-14T13:14:19;10.80;;;9.05;;
31978;SDS011;18502;43.574;1.276;2022-11-14T13:20:44;13.82;;;8.60;;
31978;SDS011;18502;43.574;1.276;2022-11-14T13:31:05;11.48;;;7.93;;
31978;SDS011;18502;43.574;1.276;2022-11-14T13:36:27;11.35;;;7.50;;
31978;SDS011;18502;43.574;1.276;2022-11-14T13:41:42;8.80;;;6.00;;
31978;SDS011;18502;43.574;1.276;2022-11-14T13:52:39;8.40;;;6.63;;
31978;SDS011;18502;43.574;1.276;2022-11-14T13:55:31;9.65;;;5.15;;
31978;SDS011;18502;43.574;1.276;2022-11-14T14:09:06;8.20;;;6.32;;
31978;SDS011;18502;43.574;1.276;2022-11-14T14:17:02;6.82;;;3.85;;
31978;SDS011;18502;43.574;1.276;2022-11-14T14:19:57;8.25;;;4.15;;
31978;SDS011;18502;43.574;1.276;2022-11-14T14:23:32;7.93;;;5.15;;
31978;SDS011;18502;43.574;1.276;2022-11-14T14:30:30;6.60;;;3.10;;
31978;SDS011;18502;43.574;1.276;2022-11-14T14:33:15;5.45;;;2.88;;
31978;SDS011;18502;43.574;1.276;2022-11-14T14:35:48;3.85;;;3.03;;
31978;SDS011;18502;43.574;1.276;2022-11-14T14:38:23;8.23;;;3.03;;
31978;SDS011;18502;43.574;1.276;2022-11-14T14:40:51;4.22;;;2.78;;
31978;SDS011;18502;43.574;1.276;2022-11-14T14:43:53;5.18;;;2.63;;
31978;SDS011;18502;43.574;1.276;2022-11-14T14:46:30;6.32;;;2.40;;
31978;SDS011;18502;43.574;1.276;2022-11-14T14:48:58;5.57;;;2.20;;
31978;SDS011;18502;43.574;1.276;2022-11-14T14:51:33;5.22;;;2.20;;
31978;SDS011;18502;43.574;1.276;2022-11-14T14:54:00;3.53;;;2.15;;
31978;SDS011;18502;43.574;1.276;2022-11-14T14:56:26;4.53;;;2.08;;
31978;SDS011;18502;43.574;1.276;2022-11-14T14:58:52;4.30;;;2.88;;
31978;SDS011;18502;43.574;1.276;2022-11-14T15:01:19;3.58;;;2.25;;
31978;SDS011;18502;43.574;1.276;2022-11-14T15:04:01;4.00;;;2.53;;
31978;SDS011;18502;43.574;1.276;2022-11-14T15:06:36;7.57;;;4.93;;
31978;SDS011;18502;43.574;1.276;2022-11-14T15:11:41;9.77;;;5.00;;
31978;SDS011;18502;43.574;1.276;2022-11-14T15:14:13;3.75;;;2.10;;
31978;SDS011;18502;43.574;1.276;2022-11-14T15:16:42;5.40;;;2.28;;
31978;SDS011;18502;43.574;1.276;2022-11-14T15:19:12;3.67;;;1.98;;
31978;SDS011;18502;43.574;1.276;2022-11-14T15:21:40;4.38;;;2.40;;
31978;SDS011;18502;43.574;1.276;2022-11-14T15:24:20;6.60;;;2.63;;
31978;SDS011;18502;43.574;1.276;2022-11-14T15:26:47;5.13;;;2.30;;
31978;SDS011;18502;43.574;1.276;2022-11-14T15:29:18;3.03;;;2.10;;
31978;SDS011;18502;43.574;1.276;2022-11-14T15:31:46;5.85;;;2.40;;
31978;SDS011;18502;43.574;1.276;2022-11-14T15:39:43;4.63;;;2.38;;
31978;SDS011;18502;43.574;1.276;2022-11-14T15:42:31;7.00;;;2.88;;
31978;SDS011;18502;43.574;1.276;2022-11-14T15:44:56;4.95;;;2.05;;
31978;SDS011;18502;43.574;1.276;2022-11-14T15:47:26;6.07;;;2.35;;
31978;SDS011;18502;43.574;1.276;2022-11-14T15:52:20;5.68;;;2.58;;
31978;SDS011;18502;43.574;1.276;2022-11-14T15:54:49;6.18;;;2.83;;
31978;SDS011;18502;43.574;1.276;2022-11-14T15:57:15;4.68;;;2.88;;
31978;SDS011;18502;43.574;1.276;2022-11-14T15:59:41;7.75;;;3.35;;
31978;SDS011;18502;43.574;1.276;2022-11-14T16:02:11;5.75;;;3.22;;
31978;SDS011;18502;43.574;1.276;2022-11-14T16:04:38;4.90;;;3.00;;
31978;SDS011;18502;43.574;1.276;2022-11-14T16:07:04;4.28;;;3.38;;
31978;SDS011;18502;43.574;1.276;2022-11-14T16:09:30;9.85;;;3.53;;
31978;SDS011;18502;43.574;1.276;2022-11-14T16:11:56;7.00;;;4.38;;
31978;SDS011;18502;43.574;1.276;2022-11-14T16:14:21;5.85;;;3.65;;
31978;SDS011;18502;43.574;1.276;2022-11-14T16:16:47;8.05;;;3.80;;
31978;SDS011;18502;43.574;1.276;2022-11-14T16:19:13;9.50;;;3.58;;
31978;SDS011;18502;43.574;1.276;2022-11-14T16:21:40;4.32;;;3.35;;
31978;SDS011;18502;43.574;1.276;2022-11-14T16:24:09;8.27;;;4.70;;
31978;SDS011;18502;43.574;1.276;2022-11-14T16:26:39;5.43;;;3.63;;
31978;SDS011;18502;43.574;1.276;2022-11-14T16:29:05;7.22;;;3.72;;
31978;SDS011;18502;43.574;1.276;2022-11-14T16:31:31;6.18;;;4.20;;
31978;SDS011;18502;43.574;1.276;2022-11-14T16:33:57;7.78;;;4.00;;
31978;SDS011;18502;43.574;1.276;2022-11-14T16:36:23;10.95;;;4.63;;
31978;SDS011;18502;43.574;1.276;2022-11-14T16:38:49;2.42;;;1.80;;
31978;SDS011;18502;43.574;1.276;2022-11-14T16:41:15;4.15;;;2.28;;
31978;SDS011;18502;43.574;1.276;2022-11-14T16:43:41;2.65;;;2.17;;
31978;SDS011;18502;43.574;1.276;2022-11-14T16:46:08;4.88;;;3.53;;
31978;SDS011;18502;43.574;1.276;2022-11-14T16:48:35;4.97;;;2.17;;
31978;SDS011;18502;43.574;1.276;2022-11-14T16:51:03;4.45;;;2.50;;
31978;SDS011;18502;43.574;1.276;2022-11-14T16:53:29;4.22;;;2.58;;
31978;SDS011;18502;43.574;1.276;2022-11-14T16:55:55;6.35;;;2.70;;
31978;SDS011;18502;43.574;1.276;2022-11-14T16:58:21;3.40;;;1.80;;
31978;SDS011;18502;43.574;1.276;2022-11-14T17:00:47;2.88;;;1.95;;
31978;SDS011;18502;43.574;1.276;2022-11-14T17:03:13;4.85;;;3.35;;
31978;SDS011;18502;43.574;1.276;2022-11-14T17:05:43;8.38;;;3.90;;
31978;SDS011;18502;43.574;1.276;2022-11-14T17:08:10;9.77;;;7.30;;
31978;SDS011;18502;43.574;1.276;2022-11-14T17:10:39;8.55;;;7.32;;
31978;SDS011;18502;43.574;1.276;2022-11-14T17:13:05;7.50;;;5.68;;
31978;SDS011;18502;43.574;1.276;2022-11-14T17:15:31;7.88;;;4.95;;
31978;SDS011;18502;43.574;1.276;2022-11-14T17:17:57;4.30;;;2.05;;
31978;SDS011;18502;43.574;1.276;2022-11-14T17:20:22;2.63;;;1.50;;
31978;SDS011;18502;43.574;1.276;2022-11-14T17:22:48;4.82;;;2.30;;
31978;SDS011;18502;43.574;1.276;2022-11-14T17:25:14;3.38;;;1.80;;
31978;SDS011;18502;43.574;1.276;2022-11-14T17:27:39;2.22;;;1.80;;
31978;SDS011;18502;43.574;1.276;2022-11-14T17:30:05;3.45;;;2.10;;
31978;SDS011;18502;43.574;1.276;2022-11-14T17:32:34;5.30;;;3.25;;
31978;SDS011;18502;43.574;1.276;2022-11-14T17:34:59;8.35;;;4.13;;
31978;SDS011;18502;43.574;1.276;2022-11-14T17:37:25;6.30;;;4.18;;
31978;SDS011;18502;43.574;1.276;2022-11-14T17:39:51;9.63;;;5.28;;
31978;SDS011;18502;43.574;1.276;2022-11-14T17:42:16;9.00;;;4.80;;
31978;SDS011;18502;43.574;1.276;2022-11-14T17:44:42;6.68;;;4.65;;
31978;SDS011;18502;43.574;1.276;2022-11-14T17:47:08;7.60;;;4.93;;
31978;SDS011;18502;43.574;1.276;2022-11-14T17:49:33;8.82;;;5.50;;
31978;SDS011;18502;43.574;1.276;2022-11-14T17:51:59;8.85;;;4.63;;
31978;SDS011;18502;43.574;1.276;2022-11-14T17:54:24;17.17;;;9.65;;
31978;SDS011;18502;43.574;1.276;2022-11-14T17:56:50;23.35;;;14.15;;
31978;SDS011;18502;43.574;1.276;2022-11-14T17:59:16;21.33;;;15.25;;
31978;SDS011;18502;43.574;1.276;2022-11-14T18:01:43;29.75;;;20.48;;
31978;SDS011;18502;43.574;1.276;2022-11-14T18:04:10;18.65;;;12.30;;
31978;SDS011;18502;43.574;1.276;2022-11-14T18:06:35;13.82;;;8.43;;
31978;SDS011;18502;43.574;1.276;2022-11-14T18:09:01;8.65;;;5.72;;
31978;SDS011;18502;43.574;1.276;2022-11-14T18:11:29;5.78;;;3.55;;
31978;SDS011;18502;43.574;1.276;2022-11-14T18:13:55;3.92;;;2.85;;
31978;SDS011;18502;43.574;1.276;2022-11-14T18:16:21;8.27;;;3.78;;
31978;SDS011;18502;43.574;1.276;2022-11-14T18:18:48;11.30;;;6.95;;
31978;SDS011;18502;43.574;1.276;2022-11-14T18:21:17;11.73;;;7.82;;
31978;SDS011;18502;43.574;1.276;2022-11-14T18:23:51;12.23;;;8.25;;
31978;SDS011;18502;43.574;1.276;2022-11-14T18:26:19;12.45;;;8.60;;
31978;SDS011;18502;43.574;1.276;2022-11-14T18:28:47;14.35;;;9.88;;
31978;SDS011;18502;43.574;1.276;2022-11-14T18:31:17;13.35;;;9.27;;
31978;SDS011;18502;43.574;1.276;2022-11-14T18:33:43;12.02;;;8.32;;
31978;SDS011;18502;43.574;1.276;2022-11-14T18:36:10;9.35;;;7.47;;
31978;SDS011;18502;43.574;1.276;2022-11-14T18:38:36;9.32;;;6.57;;
31978;SDS011;18502;43.574;1.276;2022-11-14T18:41:02;8.80;;;6.57;;
31978;SDS011;18502;43.574;1.276;2022-11-14T18:43:32;11.30;;;6.25;;
31978;SDS011;18502;43.574;1.276;2022-11-14T18:46:08;11.23;;;6.78;;
31978;SDS011;18502;43.574;1.276;2022-11-14T18:48:36;13.90;;;8.38;;
31978;SDS011;18502;43.574;1.276;2022-11-14T18:51:04;16.30;;;9.05;;
31978;SDS011;18502;43.574;1.276;2022-11-14T18:53:35;17.23;;;10.90;;
31978;SDS011;18502;43.574;1.276;2022-11-14T18:56:02;17.88;;;10.77;;
31978;SDS011;18502;43.574;1.276;2022-11-14T18:58:35;16.42;;;11.82;;
31978;SDS011;18502;43.574;1.276;2022-11-14T19:01:26;15.73;;;11.63;;
31978;SDS011;18502;43.574;1.276;2022-11-14T19:04:03;19.25;;;13.35;;
31978;SDS011;18502;43.574;1.276;2022-11-14T19:06:31;17.25;;;12.52;;
31978;SDS011;18502;43.574;1.276;2022-11-14T19:08:59;16.70;;;11.00;;
31978;SDS011;18502;43.574;1.276;2022-11-14T19:11:29;19.05;;;13.02;;
31978;SDS011;18502;43.574;1.276;2022-11-14T19:14:14;17.63;;;10.75;;
31978;SDS011;18502;43.574;1.276;2022-11-14T19:16:39;15.90;;;11.00;;
31978;SDS011;18502;43.574;1.276;2022-11-14T19:19:05;15.18;;;11.63;;
31978;SDS011;18502;43.574;1.276;2022-11-14T19:21:32;16.73;;;12.45;;
31978;SDS011;18502;43.574;1.276;2022-11-14T19:23:58;18.65;;;13.18;;
31978;SDS011;18502;43.574;1.276;2022-11-14T19:26:24;19.25;;;14.27;;
31978;SDS011;18502;43.574;1.276;2022-11-14T19:28:51;18.25;;;14.25;;
31978;SDS011;18502;43.574;1.276;2022-11-14T19:31:17;18.92;;;13.95;;
31978;SDS011;18502;43.574;1.276;2022-11-14T19:33:44;18.27;;;13.10;;
31978;SDS011;18502;43.574;1.276;2022-11-14T19:36:14;16.35;;;12.13;;
31978;SDS011;18502;43.574;1.276;2022-11-14T19:38:42;15.95;;;11.93;;
31978;SDS011;18502;43.574;1.276;2022-11-14T19:41:15;16.60;;;12.00;;
31978;SDS011;18502;43.574;1.276;2022-11-14T19:43:44;17.40;;;12.95;;
31978;SDS011;18502;43.574;1.276;2022-11-14T19:46:10;18.13;;;12.77;;
31978;SDS011;18502;43.574;1.276;2022-11-14T19:48:36;19.92;;;13.60;;
31978;SDS011;18502;43.574;1.276;2022-11-14T19:51:03;16.80;;;11.77;;
31978;SDS011;18502;43.574;1.276;2022-11-14T19:53:34;17.52;;;13.55;;
31978;SDS011;18502;43.574;1.276;2022-11-14T19:56:02;19.67;;;14.85;;
31978;SDS011;18502;43.574;1.276;2022-11-14T19:58:30;23.85;;;16.13;;
31978;SDS011;18502;43.574;1.276;2022-11-14T20:00:59;21.98;;;16.95;;
31978;SDS011;18502;43.574;1.276;2022-11-14T20:03:28;22.00;;;14.82;;